Bw Arctic — 3EDI6 — position and weather

sailwx.info

Track history (hours):
 
Tides and Currents Weather Stations Pressure Air Temp Water Temp Dewpoint Dewpoint Depression Visibility Wind Speed Wind Dir Waves Ship Positions

Bw Arctic

Last reported at 2014-Jul-24 19:33 UTC. Time now 2014-Jul-25 20:39 UTC.
Position N 54°12' W 005°13'.

Length 292 m; beam 48 m; draft 17.2 m.

Type: Cargo ship. MMSI: 371579000.

Date/timePositionNaut miles runAvg speedWind from/ knotsBaromVisibWave heightAir tempDewpointWater temp
2014-Jul-24 19:33N 54°12' W 005°13'1312.8
2014-Jul-24 18:31N 54°25' W 005°12'1313.6
2014-Jul-24 17:33N 54°38' W 005°13'1313.1
2014-Jul-24 16:34N 54°49' W 005°25'2512.3
2014-Jul-24 14:33N 55°09' W 005°51'1010.2
2014-Jul-24 13:34N 55°17' W 006°01'10 9.8
2014-Jul-24 12:34N 55°23' W 006°16'1110.6
2014-Jul-24 11:34N 55°25' W 006°33'1211.7
2014-Jul-24 10:34N 55°35' W 006°45'1312.5
2014-Jul-24 09:32N 55°46' W 006°58'18311.5
2014-Jul-23 17:33N 58°49' W 006°49'1312.8
2014-Jul-23 16:33N 59°01' W 006°39'  
2014-Jul-21 06:00N 67°42' E 013°48'   010 / 111025.610.8 19.519.015.0
2014-Jul-14 20:33N 53°05' E 004°26'1212.7
2014-Jul-14 19:34N 52°54' E 004°16'  
Track history (hours):
 
Tides and Currents Weather Stations Pressure Air Temp Water Temp Dewpoint Dewpoint Depression Visibility Wind Speed Wind Dir Waves Ship Positions

Bw Arctic

Last reported at 2014-Jul-24 19:33 UTC. Time now 2014-Jul-25 20:39 UTC.
Position N 54°12' W 005°13'.

Length 292 m; beam 48 m; draft 17.2 m.

Type: Cargo ship. MMSI: 371579000.

Date/timePositionNaut miles runAvg speedWind from/ knotsBaromVisibWave heightAir tempDewpointWater temp
2014-Jul-24 19:33N 54°12' W 005°13'1312.8
2014-Jul-24 18:31N 54°25' W 005°12'1313.6
2014-Jul-24 17:33N 54°38' W 005°13'1313.1
2014-Jul-24 16:34N 54°49' W 005°25'2512.3
2014-Jul-24 14:33N 55°09' W 005°51'1010.2
2014-Jul-24 13:34N 55°17' W 006°01'10 9.8
2014-Jul-24 12:34N 55°23' W 006°16'1110.6
2014-Jul-24 11:34N 55°25' W 006°33'1211.7
2014-Jul-24 10:34N 55°35' W 006°45'1312.5
2014-Jul-24 09:32N 55°46' W 006°58'18311.5
2014-Jul-23 17:33N 58°49' W 006°49'1312.8
2014-Jul-23 16:33N 59°01' W 006°39'  
2014-Jul-21 06:00N 67°42' E 013°48'   010 / 111025.610.8 19.519.015.0
2014-Jul-14 20:33N 53°05' E 004°26'1212.7
2014-Jul-14 19:34N 52°54' E 004°16'  

Dump ship's entire track history